Latest Weather Observations for Wadeye (Port Keats)

IDD60801

Issued at 11:31 am CST Wednesday 5 August 2015 (issued every 30 minutes, with the page automatically refreshed every 10 minutes)

About weather observations | Map of weather stations | Latest weather observations for NT | Other Formats
Station Details ID: 014948 Name: PORT KEATS AIRPORT Lat: -14.25 Lon: 129.53 Height: 28.0 m
Data from the previous 72 hours. | See also: Recent months at Wadeye (Port Keats)
Date/Time
CST
Temp
°C
App
Temp
°C
Dew
Point
Rel
Hum
%
Delta-T
°C
Wind Press
QNH
hPa
Press
MSL
hPa
Rain
since 9 am
mm
Dir
 
Spd
km/h
Gust
km/h
Spd
kts
Gust
kts
05/11:30am 25.7 18.5 -2.0 16 12.3 ESE 26 35 14 19 1016.6 1016.5 0.0
05/11:00am 25.2 18.3 -2.4 16 12.2 ESE 24 33 13 18 1017.1 1017.0 0.0
05/10:30am 24.7 18.3 -2.0 17 11.8 SE 22 32 12 17 1017.3 1017.2 0.0
05/10:00am 23.6 17.1 -2.1 18 11.2 ESE 22 35 12 19 1017.6 1017.5 0.0
05/09:30am 23.0 16.7 -1.1 20 10.7 SE 22 35 12 19 1017.6 1017.5 0.0
05/09:00am 21.7 14.9 -1.6 21 10.1 ESE 24 35 13 19 1017.6 1017.5 0.0
05/08:30am 20.6 15.0 -0.1 25 9.2 ESE 19 30 10 16 1017.5 1017.4 0.0
05/08:00am 19.7 14.9 0.2 27 8.6 SE 15 22 8 12 1017.3 1017.2 0.0
05/07:30am 19.0 14.6 0.1 28 8.3 SE 13 17 7 9 1017.0 1016.9 0.0
05/07:00am 19.1 15.1 0.2 28 8.3 ESE 11 15 6 8 1016.8 1016.7 0.0
05/06:30am 19.8 15.0 0.3 27 8.6 SE 15 20 8 11 1016.3 1016.2 0.0
05/06:00am 19.9 15.1 0.4 27 8.7 SE 15 19 8 10 1015.9 1015.8 0.0
05/05:30am 20.2 15.1 0.6 27 8.8 SE 17 20 9 11 1015.6 1015.5 0.0
05/05:00am 20.4 15.2 0.3 26 9.0 SE 17 22 9 12 1015.5 1015.4 0.0
05/04:30am 21.0 15.5 0.8 26 9.1 SE 19 26 10 14 1015.2 1015.1 0.0
05/04:00am 21.3 15.7 1.0 26 9.3 SSE 20 28 11 15 1014.9 1014.7 0.0
05/03:30am 21.7 16.0 0.8 25 9.5 SSE 20 28 11 15 1014.9 1014.7 0.0
05/03:00am 21.9 16.0 1.5 26 9.4 SSE 22 30 12 16 1015.0 1014.8 0.0
05/02:30am 22.0 16.8 2.2 27 9.3 SSE 19 26 10 14 1015.1 1015.0 0.0
05/02:00am 22.1 17.6 2.2 27 9.3 SSE 15 20 8 11 1015.3 1015.2 0.0
05/01:30am 22.7 17.8 1.7 25 9.8 SSE 17 26 9 14 1015.5 1015.4 0.0
05/01:00am 23.4 18.1 1.7 24 10.2 SSE 19 26 10 14 1015.5 1015.4 0.0
05/12:30am 23.6 18.2 2.4 25 10.1 SSE 20 26 11 14 1015.5 1015.4 0.0
05/12:00am 23.6 18.3 3.0 26 9.9 SSE 20 26 11 14 1015.5 1015.4 0.0
 
Date/Time
CST
Temp
°C
App
Temp
°C
Dew
Point
Rel
Hum
%
Delta-T
°C
Wind Press
QNH
hPa
Press
MSL
hPa
Rain
since 9 am
mm
Dir
 
Spd
km/h
Gust
km/h
Spd
kts
Gust
kts
04/11:30pm 23.7 18.8 4.1 28 9.6 SSE 19 22 10 12 1015.7 1015.6 0.0
04/11:00pm 23.0 19.4 5.0 31 9.0 SSE 13 19 7 10 1015.6 1015.5 0.0
04/10:30pm 23.4 19.4 4.9 30 9.2 SSE 15 20 8 11 1015.6 1015.5 0.0
04/10:00pm 22.1 19.8 7.5 39 7.6 S 9 15 5 8 1015.6 1015.5 0.0
04/09:30pm 21.9 19.5 7.0 38 7.6 S 9 13 5 7 1015.4 1015.3 0.0
04/09:00pm 22.3 20.0 7.3 38 7.8 SSW 9 11 5 6 1015.2 1015.1 0.0
04/08:30pm 22.6 20.5 8.3 40 7.6 SSW 9 13 5 7 1014.9 1014.7 0.0
04/08:00pm 23.9 22.2 8.3 37 8.3 S 7 13 4 7 1014.5 1014.3 0.0
04/07:30pm 24.5 22.3 8.0 35 8.8 SSW 9 15 5 8 1014.2 1014.0 0.0
04/07:00pm 25.7 23.5 7.8 32 9.5 SSW 9 13 5 7 1013.9 1013.7 0.0
04/06:30pm 27.2 24.6 7.6 29 10.5 SSW 11 20 6 11 1013.6 1013.4 0.0
04/06:00pm 29.3 25.0 3.3 19 13.1 S 15 28 8 15 1013.4 1013.2 0.0
04/05:30pm 30.3 24.7 3.4 18 13.7 SSE 22 32 12 17 1013.3 1013.1 0.0
04/05:00pm 30.1 25.3 4.7 20 13.2 SSE 19 28 10 15 1013.2 1013.0 0.0
04/04:30pm 30.4 26.0 4.9 20 13.3 S 17 26 9 14 1013.2 1013.0 0.0
04/04:00pm 31.4 27.2 5.8 20 13.6 S 17 26 9 14 1013.5 1013.3 0.0
04/03:30pm 30.6 25.9 5.1 20 13.3 S 19 30 10 16 1013.6 1013.4 0.0
04/03:00pm 31.3 26.9 4.9 19 13.8 SSE 17 32 9 17 1014.0 1013.8 0.0
04/02:30pm 30.9 26.8 6.0 21 13.2 SSE 17 26 9 14 1014.4 1014.2 0.0
04/02:00pm 30.6 26.3 5.1 20 13.3 SSE 17 28 9 15 1015.0 1014.8 0.0
04/01:30pm 30.1 25.1 4.7 20 13.2 SE 20 30 11 16 1015.5 1015.4 0.0
04/01:00pm 30.1 25.1 4.7 20 13.2 SE 20 32 11 17 1016.0 1015.9 0.0
04/12:30pm 29.9 25.7 5.9 22 12.7 ESE 17 26 9 14 1016.7 1016.6 0.0
04/12:00pm 29.0 24.7 5.1 22 12.4 E 17 26 9 14 1017.3 1017.2 0.0
04/11:30am 28.2 23.3 5.1 23 11.9 SE 20 30 11 16 1017.6 1017.5 0.0
04/11:00am 27.6 22.2 4.6 23 11.7 ESE 22 33 12 18 1018.0 1017.9 0.0
04/10:30am 27.3 22.0 5.0 24 11.4 ESE 22 30 12 16 1018.3 1018.2 0.0
04/10:00am 25.9 19.7 4.4 25 10.8 SE 26 37 14 20 1018.2 1018.1 0.0
04/09:30am 25.0 19.2 4.2 26 10.3 SE 24 39 13 21 1018.0 1017.9 0.0
04/09:00am 23.8 19.0 4.7 29 9.5 SE 19 28 10 15 1017.8 1017.7 0.0
04/08:30am 23.0 19.0 5.0 31 9.0 SE 15 20 8 11 1017.6 1017.5 0.0
04/08:00am 22.1 18.1 5.1 33 8.4 SE 15 17 8 9 1017.3 1017.2 0.0
04/07:30am 21.4 17.6 5.7 36 7.8 SE 15 19 8 10 1016.8 1016.7 0.0
04/07:00am 21.5 17.8 6.2 37 7.7 SE 15 20 8 11 1016.5 1016.4 0.0
04/06:30am 21.9 18.4 7.0 38 7.6 ESE 15 20 8 11 1016.2 1016.1 0.0
04/06:00am 21.7 18.3 9.3 45 6.6 SE 17 20 9 11 1015.8 1015.7 0.0
04/05:30am 21.7 19.5 10.8 50 6.0 SE 13 17 7 9 1015.5 1015.4 0.0
04/05:00am 22.7 19.5 11.1 48 6.4 SE 19 24 10 13 1015.3 1015.2 0.0
04/04:30am 22.8 20.6 13.3 55 5.5 SE 17 22 9 12 1015.3 1015.2 0.0
04/04:00am 23.0 21.3 14.6 59 5.0 SE 17 22 9 12 1015.1 1015.0 0.0
04/03:30am 22.3 21.9 17.2 73 3.1 SSE 15 20 8 11 1015.0 1014.8 0.0
04/03:00am 19.5 20.6 17.1 86 1.5 S 7 9 4 5 1014.9 1014.7 0.0
04/02:30am 19.9 21.7 18.7 93 0.7 S 7 11 4 6 1015.0 1014.8 0.0
04/02:00am 19.3 21.7 17.1 87 1.3 CALM 0 6 0 3 1015.1 1015.0 0.0
04/01:30am 20.4 22.8 18.9 91 0.9 SSE 4 7 2 4 1015.3 1015.2 0.0
04/01:00am 20.6 22.8 19.1 91 0.9 S 6 9 3 5 1015.5 1015.4 0.0
04/12:30am 20.1 22.5 18.0 88 1.3 S 2 7 1 4 1015.6 1015.5 0.0
04/12:00am 20.6 22.4 18.4 87 1.4 S 6 9 3 5 1015.6 1015.5 0.0
 
Date/Time
CST
Temp
°C
App
Temp
°C
Dew
Point
Rel
Hum
%
Delta-T
°C
Wind Press
QNH
hPa
Press
MSL
hPa
Rain
since 9 am
mm
Dir
 
Spd
km/h
Gust
km/h
Spd
kts
Gust
kts
03/11:30pm 21.1 23.0 19.0 88 1.3 S 7 9 4 5 1015.6 1015.5 0.0
03/11:00pm 20.3 22.2 17.7 85 1.6 S 4 7 2 4 1015.5 1015.4 0.0
03/10:30pm 20.4 21.9 18.0 86 1.5 SSW 7 9 4 5 1015.6 1015.5 0.0
03/10:00pm 20.6 22.4 17.4 82 2.0 S 4 6 2 3 1015.6 1015.5 0.0
03/09:30pm 21.3 23.9 17.5 79 2.3 CALM 0 0 0 0 1015.5 1015.4 0.0
03/09:00pm 21.5 23.3 17.5 78 2.5 SSW 4 6 2 3 1015.4 1015.3 0.0
03/08:30pm 22.4 24.4 17.8 75 2.9 S 4 7 2 4 1015.2 1015.1 0.0
03/08:00pm 23.1 25.4 17.6 71 3.4 SSW 2 6 1 3 1014.8 1014.6 0.0
03/07:30pm 23.9 25.5 17.9 69 3.8 SW 6 9 3 5 1014.5 1014.3 0.0
03/07:00pm 24.5 25.9 17.7 66 4.3 WSW 7 9 4 5 1014.1 1013.9 0.0
03/06:30pm 25.3 26.7 17.7 62 4.8 WSW 7 13 4 7 1014.0 1013.8 0.0
03/06:00pm 26.6 27.4 18.2 60 5.3 WSW 11 17 6 9 1013.7 1013.5 0.0
03/05:30pm 27.4 27.7 17.8 55 6.1 W 13 19 7 10 1013.4 1013.2 0.0
03/05:00pm 28.2 28.4 17.7 53 6.7 W 13 20 7 11 1013.5 1013.3 0.0
03/04:30pm 28.2 27.9 17.4 52 6.8 WSW 15 22 8 12 1013.4 1013.2 0.0
03/04:00pm 28.8 28.2 16.7 48 7.6 W 15 24 8 13 1013.4 1013.2 0.0
03/03:30pm 29.1 28.3 16.0 45 8.1 W 15 26 8 14 1013.6 1013.4 0.0
03/03:00pm 29.7 29.3 16.1 43 8.5 NW 13 20 7 11 1013.9 1013.7 0.0
03/02:30pm 29.5 28.7 16.0 44 8.4 N 15 20 8 11 1014.2 1014.0 0.0
03/02:00pm 29.7 28.9 16.1 43 8.5 N 15 24 8 13 1014.5 1014.3 0.0
03/01:30pm 29.7 29.0 15.4 42 8.8 N 13 17 7 9 1015.1 1015.0 0.0
03/01:00pm 28.8 27.7 15.3 43 8.3 N 15 22 8 12 1015.7 1015.6 0.0
03/12:30pm 29.2 28.0 16.0 44 8.2 N 17 24 9 13 1016.2 1016.1 0.0
03/12:00pm 29.0 29.1 17.5 49 7.3 N 13 20 7 11 1016.5 1016.4 0.0
03/11:30am 28.1 27.5 15.7 46 7.6 NNE 13 17 7 9 1016.9 1016.8 0.0
03/11:00am 27.9 28.6 17.1 51 6.8 N 9 13 5 7 1017.2 1017.1 0.0
03/10:30am 26.4 29.0 19.3 65 4.6 NE 4 7 2 4 1017.3 1017.2 0.0
03/10:00am 24.8 26.6 19.6 73 3.4 N 9 15 5 8 1017.5 1017.4 0.0
03/09:30am 24.3 26.6 19.4 74 3.1 ENE 6 9 3 5 1017.2 1017.1 0.0
03/09:00am 23.0 26.1 19.6 81 2.2 E 2 6 1 3 1016.8 1016.7 0.0
03/08:30am 21.1 23.7 19.2 89 1.2 E 4 7 2 4 1016.4 1016.3 0.0
03/08:00am 18.1 20.6 17.3 95 0.5 CALM 0 0 0 0 1016.1 1016.0 0.0
03/07:30am 17.7 20.1 16.9 95 0.5 CALM 0 0 0 0 1016.1 1016.0 0.0
03/07:00am 17.6 18.2 16.8 95 0.5 ENE 9 17 5 9 1015.9 1015.8 0.0
03/06:30am 17.0 19.0 16.0 94 0.6 CALM 0 0 0 0 1015.2 1015.1 0.0
03/06:00am 16.6 17.7 15.6 94 0.6 S 4 7 2 4 1015.0 1014.8 0.0
03/05:30am 16.6 18.3 15.3 92 0.8 CALM 0 0 0 0 1014.8 1014.6 0.0
03/05:00am 16.7 18.5 15.4 92 0.8 CALM 0 0 0 0 1014.9 1014.7 0.0
03/04:30am 17.0 18.9 15.7 92 0.8 CALM 0 0 0 0 1014.9 1014.7 0.0
03/04:00am 16.9 18.7 15.4 91 0.9 CALM 0 0 0 0 1015.0 1014.8 0.0
03/03:30am 17.2 19.0 15.5 90 1.0 CALM 0 0 0 0 1015.0 1014.8 0.0
03/03:00am 17.3 19.1 15.6 90 1.0 CALM 0 0 0 0 1015.2 1015.1 0.0
03/02:30am 17.8 19.8 16.1 90 1.0 CALM 0 0 0 0 1015.5 1015.4 0.0
03/02:00am 18.6 20.8 16.4 87 1.3 CALM 0 0 0 0 1015.7 1015.6 0.0
03/01:30am 19.3 21.9 17.6 90 1.0 CALM 0 0 0 0 1016.1 1016.0 0.0
03/01:00am 19.4 22.0 17.4 88 1.2 CALM 0 0 0 0 1016.1 1016.0 0.0
03/12:30am 19.0 21.3 16.8 87 1.3 CALM 0 0 0 0 1016.1 1016.0 0.0
03/12:00am 20.1 22.5 18.0 88 1.3 SE 2 7 1 4 1016.4 1016.3 0.0
 
Date/Time
CST
Temp
°C
App
Temp
°C
Dew
Point
Rel
Hum
%
Delta-T
°C
Wind Press
QNH
hPa
Press
MSL
hPa
Rain
since 9 am
mm
Dir
 
Spd
km/h
Gust
km/h
Spd
kts
Gust
kts
02/11:30pm 19.8 22.4 17.6 87 1.3 CALM 0 4 0 2 1016.1 1016.0 0.0
02/11:00pm 19.9 22.2 17.7 87 1.4 S 2 7 1 4 1016.0 1015.9 0.0
02/10:30pm 20.8 23.7 18.2 85 1.6 CALM 0 0 0 0 1015.7 1015.6 0.0
02/10:00pm 21.0 23.7 18.6 86 1.5 S 2 6 1 3 1015.7 1015.6 0.0
02/09:30pm 21.3 24.3 18.5 84 1.8 CALM 0 0 0 0 1015.4 1015.3 0.0
02/09:00pm 22.0 25.2 18.8 82 2.0 CALM 0 0 0 0 1015.4 1015.3 0.0
02/08:30pm 22.7 26.0 19.1 80 2.3 CALM 0 0 0 0 1015.3 1015.2 0.0
02/08:00pm 23.1 26.6 19.5 80 2.3 CALM 0 0 0 0 1014.8 1014.6 0.0
02/07:30pm 23.8 26.1 19.5 77 2.8 WNW 6 9 3 5 1014.4 1014.2 0.0
02/07:00pm 24.2 26.3 19.3 74 3.1 W 7 9 4 5 1014.3 1014.1 0.0
02/06:30pm 25.1 26.6 19.0 69 3.9 WNW 9 17 5 9 1014.0 1013.8 0.0
02/06:00pm 26.4 26.7 18.0 60 5.3 NW 13 17 7 9 1013.7 1013.5 0.0
02/05:30pm 27.0 27.0 18.0 58 5.7 NW 15 19 8 10 1013.5 1013.3 0.0
02/05:00pm 27.7 26.8 16.9 51 6.7 NW 17 22 9 12 1013.5 1013.3 0.0
02/04:30pm 27.7 26.2 16.3 49 7.1 NNW 19 24 10 13 1013.6 1013.4 0.0
02/04:00pm 28.3 28.7 19.0 57 6.0 NNW 15 22 8 12 1013.8 1013.6 0.0
02/03:30pm 27.5 27.7 18.5 58 5.8 WNW 15 26 8 14 1013.8 1013.6 0.0
02/03:00pm 28.6 28.2 18.1 53 6.7 NNW 17 22 9 12 1014.0 1013.8 0.0
02/02:30pm 29.0 28.1 17.8 50 7.1 NNW 19 30 10 16 1014.5 1014.3 0.0
02/02:00pm 29.8 28.5 17.3 47 7.9 N 20 28 11 15 1015.0 1014.8 0.0
02/01:30pm 29.9 28.5 17.0 45 8.1 N 20 30 11 16 1015.4 1015.3 0.0
02/01:00pm 28.7 26.2 14.1 40 8.8 N 20 24 11 13 1015.9 1015.8 0.0
02/12:30pm 29.3 27.7 15.1 42 8.7 N 17 24 9 13 1016.2 1016.1 0.0
02/12:00pm 29.4 27.6 13.2 37 9.6 N 15 20 8 11 1016.5 1016.4 0.0

Other Formats:

Comma delimited format used in spreadsheet applications
http://www.bom.gov.au/fwo/IDD60801/IDD60801.95111.axf

JavaScript Object Notation format (JSON) in row-major order
http://www.bom.gov.au/fwo/IDD60801/IDD60801.95111.json